createdAt,value
2022-07-31T10:45:09.317Z,1.80
2022-07-31T10:47:35.914Z,1.55
2022-07-31T10:50:04.611Z,1.70
2022-07-31T10:52:34.660Z,1.85
2022-07-31T10:55:02.018Z,2.00
2022-07-31T10:57:32.073Z,2.00
2022-07-31T11:00:12.000Z,1.52
2022-07-31T11:02:38.872Z,1.70
2022-07-31T11:05:09.183Z,1.83
2022-07-31T11:07:36.248Z,1.63
2022-07-31T11:10:09.768Z,1.58
2022-07-31T11:12:36.555Z,1.45
2022-07-31T11:15:03.420Z,1.42
2022-07-31T11:18:24.023Z,1.77
2022-07-31T11:20:31.300Z,1.92
2022-07-31T11:23:04.591Z,1.73
2022-07-31T11:25:34.072Z,1.73
2022-07-31T11:28:19.068Z,1.83
2022-07-31T11:30:59.028Z,1.88
2022-07-31T11:33:42.249Z,2.00
2022-07-31T11:36:21.128Z,2.03
2022-07-31T11:38:50.423Z,1.83
2022-07-31T11:41:22.074Z,1.77
2022-07-31T11:43:51.625Z,2.03
2022-07-31T11:46:38.053Z,2.30
2022-07-31T11:49:05.242Z,2.00
2022-07-31T11:51:31.872Z,1.70
2022-07-31T11:53:59.164Z,1.92
2022-07-31T11:56:27.499Z,1.70
2022-07-31T11:58:58.508Z,1.45
2022-07-31T12:01:27.805Z,1.80
2022-07-31T12:03:56.210Z,1.65
2022-07-31T12:06:22.797Z,1.67
2022-07-31T12:08:50.155Z,1.83
2022-07-31T12:11:21.174Z,1.90
2022-07-31T12:13:49.204Z,1.60
2022-07-31T12:16:18.690Z,1.73
2022-07-31T12:18:48.228Z,1.90
2022-07-31T12:21:15.945Z,2.00
2022-07-31T12:23:49.125Z,1.55
2022-07-31T12:26:33.264Z,1.63
2022-07-31T12:29:06.411Z,1.60
2022-07-31T12:31:54.181Z,1.85
2022-07-31T12:34:35.039Z,1.60
2022-07-31T12:37:04.411Z,1.75
2022-07-31T12:39:54.840Z,1.73
2022-07-31T12:42:36.430Z,1.90
2022-07-31T12:45:17.627Z,1.85
2022-07-31T12:47:45.916Z,1.88
2022-07-31T12:50:18.036Z,2.13
2022-07-31T12:52:45.320Z,2.13
2022-07-31T12:55:11.854Z,2.08
2022-07-31T12:57:47.134Z,2.10
2022-07-31T13:00:18.489Z,1.90
2022-07-31T13:02:45.456Z,2.13
2022-07-31T13:05:12.083Z,1.85
2022-07-31T13:07:38.990Z,1.80
2022-07-31T13:10:19.068Z,2.00
2022-07-31T13:12:51.494Z,1.85
2022-07-31T13:15:20.753Z,2.10
2022-07-31T13:17:50.158Z,1.83
2022-07-31T13:20:18.133Z,2.10
2022-07-31T13:22:44.731Z,1.90
2022-07-31T13:25:11.322Z,2.05
2022-07-31T13:27:38.027Z,2.13
2022-07-31T13:30:05.543Z,2.10
2022-07-31T13:32:32.096Z,2.00
2022-07-31T13:35:26.608Z,2.00
2022-07-31T13:37:48.859Z,2.20
2022-07-31T13:40:15.627Z,2.17
2022-07-31T13:42:42.204Z,2.13
2022-07-31T13:45:09.507Z,2.30
2022-07-31T13:47:50.465Z,2.17
2022-07-31T13:50:18.696Z,2.00
2022-07-31T13:52:45.212Z,2.10
2022-07-31T13:55:11.755Z,2.10
2022-07-31T13:57:38.288Z,2.22
2022-07-31T14:00:05.595Z,2.22
2022-07-31T14:02:32.388Z,2.05
2022-07-31T14:04:59.031Z,2.22
2022-07-31T14:07:45.571Z,2.40
2022-07-31T14:10:14.938Z,2.38
2022-07-31T14:15:11.039Z,2.22
2022-07-31T14:17:37.839Z,2.30
2022-07-31T14:20:04.909Z,2.20
2022-07-31T14:22:31.606Z,2.28
2022-07-31T14:24:58.232Z,2.20
2022-07-31T14:27:24.908Z,2.78
2022-07-31T14:29:51.435Z,2.35
2022-07-31T14:32:19.391Z,2.53
2022-07-31T14:34:46.126Z,2.70
2022-07-31T14:37:12.878Z,2.30
2022-07-31T14:39:42.533Z,2.60
2022-07-31T14:42:09.648Z,2.58
2022-07-31T14:44:36.931Z,2.30
2022-07-31T14:47:04.054Z,2.20
2022-07-31T14:50:07.952Z,2.25
2022-07-31T14:52:18.262Z,2.30
2022-07-31T14:54:44.814Z,2.65
2022-07-31T14:57:11.766Z,2.55
2022-07-31T14:59:38.454Z,2.38
2022-07-31T15:02:05.430Z,2.45
2022-07-31T15:04:32.569Z,2.40
2022-07-31T15:07:19.176Z,2.30
2022-07-31T15:09:46.776Z,2.20
2022-07-31T15:12:16.942Z,2.60
2022-07-31T15:14:47.300Z,2.42
2022-07-31T15:17:13.817Z,2.05
2022-07-31T15:19:40.389Z,2.22
2022-07-31T15:22:09.955Z,2.40
2022-07-31T15:24:48.432Z,2.22
2022-07-31T15:27:21.589Z,2.55
2022-07-31T15:30:00.171Z,2.70
2022-07-31T15:32:37.497Z,2.30
2022-07-31T15:35:05.713Z,2.53
2022-07-31T15:37:37.477Z,2.30
2022-07-31T15:40:07.093Z,2.45
2022-07-31T15:42:40.475Z,2.50
2022-07-31T15:45:14.558Z,2.53
2022-07-31T15:47:42.414Z,2.78
2022-07-31T15:50:11.398Z,2.33
2022-07-31T15:52:38.066Z,2.38
2022-07-31T15:55:06.175Z,2.30
2022-07-31T15:57:33.258Z,2.83
2022-07-31T16:00:00.160Z,2.50
2022-07-31T16:02:27.277Z,2.40
2022-07-31T16:04:57.467Z,2.72
2022-07-31T16:08:31.291Z,2.63
2022-07-31T16:10:18.210Z,2.40
2022-07-31T16:12:48.480Z,2.80
2022-07-31T16:15:19.776Z,2.60
2022-07-31T16:17:47.150Z,2.60
2022-07-31T16:20:26.379Z,2.50
2022-07-31T16:23:02.739Z,2.78
2022-07-31T16:25:32.227Z,2.60
2022-07-31T16:28:03.044Z,2.58
2022-07-31T16:30:29.634Z,3.17
2022-07-31T16:32:56.551Z,2.40
2022-07-31T16:35:26.051Z,2.42
2022-07-31T16:37:53.918Z,2.78
2022-07-31T16:40:29.709Z,3.25
2022-07-31T16:43:46.712Z,2.80
2022-07-31T16:45:50.552Z,2.63
2022-07-31T16:48:17.531Z,2.60
2022-07-31T16:50:44.073Z,2.50
2022-07-31T16:54:13.380Z,2.38
2022-07-31T16:56:00.554Z,2.85
2022-07-31T16:58:27.772Z,2.67
2022-07-31T17:00:54.526Z,2.42
2022-07-31T17:03:58.622Z,2.50
2022-07-31T17:06:11.381Z,2.30
2022-07-31T17:08:38.299Z,2.47
2022-07-31T17:11:05.341Z,2.47
2022-07-31T17:13:31.922Z,2.15
2022-07-31T17:15:58.427Z,2.30
2022-07-31T17:18:25.976Z,2.10
2022-07-31T17:20:56.249Z,1.90
2022-07-31T17:23:27.722Z,1.77
2022-07-31T17:26:10.402Z,1.90
2022-07-31T17:28:47.548Z,2.00
2022-07-31T17:31:14.225Z,2.03
2022-07-31T17:33:49.562Z,2.10
2022-07-31T17:36:29.118Z,2.05
2022-07-31T17:38:57.065Z,1.70
2022-07-31T17:41:25.551Z,2.20
2022-07-31T17:43:54.028Z,1.98
2022-07-31T17:46:28.119Z,1.90
2022-07-31T17:49:01.444Z,1.80
2022-07-31T17:51:28.027Z,1.55
2022-07-31T17:53:59.150Z,1.70
2022-07-31T17:56:26.568Z,1.50
2022-07-31T17:58:53.831Z,1.65
2022-07-31T18:01:23.340Z,1.70
2022-07-31T18:03:52.294Z,2.05
2022-07-31T18:06:18.802Z,1.80
2022-07-31T18:08:45.407Z,1.90
2022-07-31T18:11:11.885Z,2.00
2022-07-31T18:13:47.773Z,2.00
2022-07-31T18:16:15.507Z,1.95
2022-07-31T18:18:42.070Z,1.80
2022-07-31T18:21:08.701Z,1.80
2022-07-31T18:23:35.247Z,1.80
2022-07-31T18:26:02.639Z,1.75
2022-07-31T18:28:29.514Z,1.58
2022-07-31T18:30:56.041Z,1.60
2022-07-31T18:33:22.697Z,1.77
2022-07-31T18:35:50.456Z,1.90
2022-07-31T18:38:17.045Z,1.70
2022-07-31T18:40:46.576Z,1.60
2022-07-31T18:43:18.917Z,1.83
2022-07-31T18:45:45.447Z,1.85
2022-07-31T18:48:12.029Z,1.52
2022-07-31T18:50:59.455Z,2.00
2022-07-31T18:53:25.451Z,2.10
2022-07-31T18:55:52.099Z,1.77
2022-07-31T18:58:18.645Z,1.77
2022-07-31T19:00:45.274Z,2.03
2022-07-31T19:03:11.842Z,1.80
2022-07-31T19:05:38.436Z,1.73
2022-07-31T19:08:05.646Z,1.92
2022-07-31T19:10:32.217Z,1.83
2022-07-31T19:12:59.678Z,2.00
2022-07-31T19:15:29.476Z,2.10
2022-07-31T19:18:02.039Z,1.88
2022-07-31T19:20:56.644Z,1.95
2022-07-31T19:23:16.388Z,1.70
2022-07-31T19:26:02.085Z,1.92
2022-07-31T19:28:33.164Z,1.90
2022-07-31T19:31:00.011Z,2.00
2022-07-31T19:33:26.582Z,1.80
2022-07-31T19:35:58.535Z,1.92
2022-07-31T19:38:28.125Z,1.70
2022-07-31T19:40:57.708Z,1.65
2022-07-31T19:43:24.420Z,2.10
2022-07-31T19:46:09.726Z,2.33
2022-07-31T19:48:43.448Z,1.80
2022-07-31T19:51:11.445Z,1.85
2022-07-31T19:53:38.589Z,2.00
2022-07-31T19:56:06.176Z,2.00
2022-07-31T19:58:40.156Z,2.03
2022-07-31T20:01:08.719Z,2.50
2022-07-31T20:03:35.906Z,2.55
2022-07-31T20:06:03.167Z,2.67
2022-07-31T20:08:33.528Z,2.63
2022-07-31T20:11:03.469Z,2.30
2022-07-31T20:13:31.922Z,2.40
2022-07-31T20:15:58.805Z,2.30
2022-07-31T20:18:29.388Z,2.15
2022-07-31T20:21:03.570Z,2.33
2022-07-31T20:23:31.149Z,2.40
2022-07-31T20:25:57.908Z,2.10
2022-07-31T20:28:26.978Z,1.95
2022-07-31T20:30:53.727Z,2.40
2022-07-31T20:33:21.421Z,2.42
2022-07-31T20:35:50.090Z,2.40
2022-07-31T20:38:18.665Z,2.28
2022-07-31T20:40:53.923Z,2.47
2022-07-31T20:43:26.413Z,2.03
2022-07-31T20:45:58.533Z,2.17
2022-07-31T20:48:33.022Z,2.17
2022-07-31T20:51:02.037Z,2.00
2022-07-31T20:53:29.650Z,1.95
2022-07-31T20:55:56.255Z,2.30
2022-07-31T20:58:24.048Z,2.42
2022-07-31T21:00:51.954Z,2.65
2022-07-31T21:03:18.906Z,2.70
2022-07-31T21:05:46.248Z,2.75
2022-07-31T21:08:13.055Z,2.83
2022-07-31T21:10:39.753Z,3.00
2022-07-31T21:13:09.141Z,2.97
2022-07-31T21:15:41.729Z,2.80
2022-07-31T21:18:15.512Z,3.20
2022-07-31T21:20:51.127Z,3.08
2022-07-31T21:23:22.639Z,3.03
2022-07-31T21:25:49.935Z,3.60
2022-07-31T21:28:18.083Z,2.92
2022-07-31T21:30:48.590Z,3.40
2022-07-31T21:33:15.988Z,3.55
2022-07-31T21:35:42.863Z,3.28
2022-07-31T21:38:11.788Z,3.70
2022-07-31T21:40:39.922Z,3.38
2022-07-31T21:43:07.024Z,3.38
2022-07-31T21:45:48.962Z,2.90
2022-07-31T21:48:23.223Z,3.53
2022-07-31T21:50:50.085Z,3.42
2022-07-31T21:53:18.264Z,3.53
2022-07-31T21:55:44.769Z,3.20
2022-07-31T21:58:11.360Z,3.70
2022-07-31T22:00:38.079Z,3.30
2022-07-31T22:03:05.332Z,2.90
2022-07-31T22:05:51.462Z,3.28
2022-07-31T22:08:18.974Z,3.10
2022-07-31T22:10:46.307Z,3.08
2022-07-31T22:13:12.944Z,3.20
2022-07-31T22:15:59.482Z,2.95
2022-07-31T22:18:28.667Z,2.92
2022-07-31T22:21:04.802Z,3.10
2022-07-31T22:23:35.380Z,3.30
2022-07-31T22:26:02.208Z,3.00
2022-07-31T22:28:29.188Z,3.10
2022-07-31T22:30:57.087Z,2.60
2022-07-31T22:33:24.042Z,2.72
2022-07-31T22:36:00.322Z,3.00
2022-07-31T22:38:31.240Z,2.88
2022-07-31T22:41:01.493Z,3.00
2022-07-31T22:44:10.046Z,2.58
2022-07-31T22:46:15.503Z,3.10
2022-07-31T22:48:44.160Z,3.15
2022-07-31T22:51:14.341Z,3.35
2022-07-31T22:53:42.186Z,3.37
2022-07-31T22:56:12.020Z,3.20
2022-07-31T22:58:38.819Z,3.20
2022-07-31T23:01:05.374Z,2.85
2022-07-31T23:03:31.927Z,3.00
2022-07-31T23:06:29.146Z,3.20
2022-07-31T23:08:46.875Z,3.20
2022-07-31T23:11:18.523Z,3.10
2022-07-31T23:13:45.142Z,3.08
2022-07-31T23:16:11.651Z,3.17
2022-07-31T23:18:38.205Z,3.25
2022-07-31T23:21:04.757Z,3.30
2022-07-31T23:23:35.153Z,3.40
2022-07-31T23:26:02.294Z,3.50
2022-07-31T23:28:28.862Z,3.28
2022-07-31T23:30:55.440Z,3.30
2022-07-31T23:33:21.955Z,3.70
2022-07-31T23:35:48.511Z,3.50
2022-07-31T23:38:15.053Z,4.05
2022-07-31T23:40:41.708Z,3.70
2022-07-31T23:43:08.596Z,3.92
2022-07-31T23:45:36.117Z,3.83
2022-07-31T23:48:04.124Z,3.40
2022-07-31T23:50:31.549Z,3.33
2022-07-31T23:52:58.102Z,3.38
2022-07-31T23:55:24.650Z,3.05
2022-07-31T23:57:51.175Z,3.30
